Time;durP1;ratioP1;P1;durP2;ratioP2;P2;SDS_P1;SDS_P2;PMS_P1;PMS_P2;Temp;Humidity;BMP_temperature;BMP_pressure;BME280_temperature;BME280_humidity;BME280_pressure;Samples;Min_cycle;Max_cycle;Signal;HPM_P1;HPM_P2
2023/01/27 00:01:49;;;;;;;;;17.25;12.50;;;;;7.70;82.27;100189.28;146615;627;45033;-80
2023/01/27 00:04:47;;;;;;;;;17.00;13.25;;;;;7.71;81.93;100180.72;146611;563;46014;-77
2023/01/27 00:07:48;;;;;;;;;13.00;12.50;;;;;7.71;81.95;100168.69;146616;616;45021;-78
2023/01/27 00:10:41;;;;;;;;;20.00;14.00;;;;;7.71;81.68;100157.50;146610;613;45016;-78
2023/01/27 00:13:41;;;;;;;;;19.50;15.75;;;;;7.67;81.53;100158.13;146614;611;45020;-76
2023/01/27 00:16:39;;;;;;;;;20.50;17.75;;;;;7.69;81.73;100159.09;146610;731;46013;-76
2023/01/27 00:19:44;;;;;;;;;13.50;12.75;;;;;7.70;81.57;100156.59;146613;637;46012;-79
2023/01/27 00:26:00;;;;;;;;;17.00;16.00;;;;;7.63;81.12;100168.28;146620;584;46020;-80
2023/01/27 00:29:18;;;;;;;;;10.50;9.75;;;;;6.98;80.87;100065.03;146609;586;45914;-79
2023/01/27 00:35:36;;;;;;;;;11.25;9.75;;;;;7.61;81.24;100175.06;146617;569;45912;-80
2023/01/27 00:38:29;;;;;;;;;15.75;11.00;;;;;7.63;81.17;100175.13;146624;616;45021;-81
2023/01/27 00:41:23;;;;;;;;;19.50;14.75;;;;;7.69;81.09;100182.31;146613;619;45914;-83
2023/01/27 00:44:18;;;;;;;;;29.00;24.50;;;;;7.72;81.06;100182.47;146614;598;45020;-82
2023/01/27 00:47:41;;;;;;;;;;;;;;;;;;;;;
2023/01/27 00:50:34;;;;;;;;;20.00;15.75;;;;;7.72;80.49;100159.25;146615;659;45049;-81
2023/01/27 00:53:29;;;;;;;;;14.50;12.25;;;;;7.74;80.60;100143.06;146613;606;45017;-81
2023/01/27 00:56:24;;;;;;;;;13.75;12.25;;;;;7.77;80.30;100145.78;146613;565;46012;-82
2023/01/27 00:59:19;;;;;;;;;12.75;10.75;;;;;7.72;80.13;100149.81;146611;577;45017;-82
2023/01/27 01:02:18;;;;;;;;;15.50;13.75;;;;;7.71;80.34;100150.62;146612;604;45021;-82
2023/01/27 01:05:14;;;;;;;;;29.00;23.50;;;;;7.71;80.84;100176.44;146613;571;46012;-82
2023/01/27 01:08:20;;;;;;;;;25.00;24.00;;;;;7.69;81.11;100180.63;146611;564;46020;-82
2023/01/27 01:11:21;;;;;;;;;24.00;19.50;;;;;7.71;81.26;100173.84;146613;571;45016;-82
2023/01/27 01:14:16;;;;;;;;;18.75;16.25;;;;;7.70;80.88;100172.09;146615;601;46010;-78
2023/01/27 01:17:29;;;;;;;;;17.75;15.00;;;;;6.57;80.54;99986.31;146606;603;46012;-79
2023/01/27 01:20:24;;;;;;;;;20.00;16.75;;;;;7.67;80.99;100177.09;146612;600;46010;-80
2023/01/27 01:23:22;;;;;;;;;18.75;16.25;;;;;7.69;80.81;100177.16;146611;584;46012;-80
2023/01/27 01:26:27;;;;;;;;;17.50;16.50;;;;;7.71;80.66;100145.47;146616;573;45020;-79
2023/01/27 01:29:33;;;;;;;;;19.00;16.00;;;;;7.71;80.60;100142.00;146610;595;45017;-80
2023/01/27 01:32:28;;;;;;;;;21.00;17.00;;;;;7.73;80.54;100148.16;146613;587;46010;-79
2023/01/27 01:35:31;;;;;;;;;19.75;15.25;;;;;7.71;80.29;100139.41;146613;626;45016;-80
2023/01/27 01:38:34;;;;;;;;;24.25;19.00;;;;;7.73;80.64;100146.44;146637;575;44021;-82
2023/01/27 01:41:36;;;;;;;;;29.00;23.50;;;;;7.73;80.71;100133.53;146635;582;44912;-79
2023/01/27 01:44:35;;;;;;;;;28.50;24.25;;;;;7.75;80.63;100134.50;146638;569;44021;-78
2023/01/27 01:47:42;;;;;;;;;36.00;30.25;;;;;7.16;80.66;100021.28;146635;597;45898;-77
2023/01/27 01:50:40;;;;;;;;;49.75;39.25;;;;;7.76;80.59;100125.09;146637;610;45020;-78
2023/01/27 01:53:41;;;;;;;;;36.75;31.50;;;;;7.76;80.76;100123.38;146638;612;44912;-77
2023/01/27 01:56:58;;;;;;;;;34.00;28.25;;;;;7.77;80.75;100125.16;146638;622;44020;-78
2023/01/27 02:00:05;;;;;;;;;24.50;21.25;;;;;7.79;80.88;100115.81;146635;641;45913;-77
2023/01/27 02:03:07;;;;;;;;;18.25;16.75;;;;;7.78;80.95;100100.22;146636;642;45010;-74
2023/01/27 02:05:59;;;;;;;;;19.00;19.00;;;;;7.74;81.13;100086.28;146637;748;45012;-75
2023/01/27 02:09:03;;;;;;;;;22.25;19.50;;;;;7.82;80.83;100073.78;146638;564;44021;-74
2023/01/27 02:11:55;;;;;;;;;14.50;13.25;;;;;7.80;80.60;100076.28;146637;569;44016;-79
2023/01/27 02:15:09;;;;;;;;;14.50;13.50;;;;;6.71;80.62;99908.09;146633;601;45916;-78
2023/01/27 02:18:15;;;;;;;;;17.50;12.75;;;;;7.83;80.47;100081.59;146638;710;44016;-79
2023/01/27 02:21:20;;;;;;;;;16.00;13.25;;;;;7.85;80.99;100081.69;146638;676;44021;-77
2023/01/27 02:24:25;;;;;;;;;14.25;13.25;;;;;7.86;80.86;100074.00;146634;636;44911;-78
2023/01/27 02:27:32;;;;;;;;;15.50;11.75;;;;;7.89;80.51;100068.13;146637;598;45020;-78
2023/01/27 02:30:24;;;;;;;;;9.25;9.00;;;;;7.89;80.22;100059.50;146634;658;45012;-75
2023/01/27 02:33:22;;;;;;;;;9.50;8.75;;;;;7.87;80.28;100065.44;146647;575;44020;-78
2023/01/27 02:36:33;;;;;;;;;15.25;13.00;;;;;7.85;80.02;100061.03;146635;619;45017;-77
2023/01/27 02:39:37;;;;;;;;;19.75;15.50;;;;;7.82;79.66;100051.44;146614;569;45020;-75
2023/01/27 02:42:35;;;;;;;;;12.25;11.00;;;;;7.79;80.27;100037.50;146612;572;45912;-78
2023/01/27 02:45:46;;;;;;;;;;;;;;;;;;;;;
2023/01/27 02:48:54;;;;;;;;;14.75;12.25;;;;;7.10;79.97;99917.84;146612;659;45018;-78
2023/01/27 02:51:55;;;;;;;;;15.00;12.00;;;;;7.63;80.40;100023.81;146614;575;45021;-77
2023/01/27 02:54:51;;;;;;;;;13.75;11.50;;;;;7.59;80.19;100019.28;146613;694;46012;-77
2023/01/27 02:57:52;;;;;;;;;12.00;8.00;;;;;7.03;80.61;99921.78;146616;564;45021;-77
2023/01/27 03:00:46;;;;;;;;;9.75;9.00;;;;;7.59;80.72;100021.84;146618;610;45017;-77
2023/01/27 03:03:50;;;;;;;;;11.25;11.00;;;;;7.60;80.63;100012.41;146624;611;45020;-77
2023/01/27 03:06:55;;;;;;;;;15.25;11.50;;;;;7.62;80.69;100008.22;146614;592;45017;-78
2023/01/27 03:10:03;;;;;;;;;14.00;11.00;;;;;6.99;80.72;99921.56;146613;572;45020;-78
2023/01/27 03:13:11;;;;;;;;;12.00;12.00;;;;;7.57;80.88;100053.53;146609;564;45026;-79
2023/01/27 03:19:25;;;;;;;;;14.75;12.00;;;;;7.53;80.51;100072.25;146608;595;46012;-80
2023/01/27 03:22:20;;;;;;;;;15.00;10.75;;;;;7.50;80.55;100082.41;146613;586;46010;-79
2023/01/27 03:25:28;;;;;;;;;12.75;11.00;;;;;7.47;80.74;100085.69;146611;581;45914;-78
2023/01/27 03:28:23;;;;;;;;;16.50;13.00;;;;;7.44;80.58;100079.50;146613;564;45021;-77
2023/01/27 03:31:37;;;;;;;;;19.75;17.25;;;;;7.45;80.62;100071.84;146610;680;45914;-78
2023/01/27 03:34:36;;;;;;;;;14.00;12.00;;;;;7.49;80.78;100078.06;146612;631;46010;-77
2023/01/27 03:47:35;;;;;;;;;18.00;15.25;;;;;6.46;80.52;99858.66;146639;572;44020;-79
2023/01/27 03:53:48;;;;;;;;;17.50;15.50;;;;;7.58;81.07;100055.31;146636;624;45010;-82
2023/01/27 03:56:44;;;;;;;;;15.50;13.75;;;;;7.56;81.02;100057.81;146637;607;44915;-80
2023/01/27 03:59:39;;;;;;;;;15.00;13.25;;;;;7.56;81.48;100059.50;146639;587;44020;-80
2023/01/27 04:08:59;;;;;;;;;15.00;14.25;;;;;7.46;82.18;100062.41;146638;589;44911;-77
2023/01/27 04:12:05;;;;;;;;;14.50;13.75;;;;;7.45;81.92;100070.97;146639;607;44021;-74
2023/01/27 04:15:00;;;;;;;;;13.75;13.00;;;;;7.43;81.75;100075.16;146633;624;45012;-76
2023/01/27 04:17:58;;;;;;;;;15.75;13.00;;;;;7.43;81.77;100073.44;146638;599;44020;-76
2023/01/27 04:20:50;;;;;;;;;12.00;9.25;;;;;7.47;81.99;100082.25;146639;575;44017;-75
2023/01/27 04:23:45;;;;;;;;;15.00;14.25;;;;;7.50;82.48;100083.28;146645;630;44020;-76
2023/01/27 04:26:40;;;;;;;;;16.25;13.25;;;;;7.51;82.20;100086.78;146636;626;45016;-74
2023/01/27 04:29:50;;;;;;;;;12.50;10.75;;;;;7.51;82.03;100082.50;146640;605;44020;-75
2023/01/27 04:33:09;;;;;;;;;15.25;12.00;;;;;7.53;82.40;100085.13;146636;571;44914;-74
2023/01/27 04:36:05;;;;;;;;;21.00;14.25;;;;;7.54;82.71;100089.50;146637;566;45012;-81
2023/01/27 04:39:02;;;;;;;;;18.75;13.75;;;;;7.53;82.64;100092.88;146612;569;45914;-81
2023/01/27 04:41:55;;;;;;;;;14.75;11.00;;;;;7.52;83.08;100093.69;146615;599;45021;-80
2023/01/27 04:44:53;;;;;;;;;20.50;16.25;;;;;7.50;83.10;100098.75;146606;597;45913;-79
2023/01/27 04:47:51;;;;;;;;;12.75;12.75;;;;;7.49;83.41;100102.16;146610;602;46010;-79
2023/01/27 04:50:48;;;;;;;;;13.00;9.75;;;;;7.49;83.66;100106.44;146607;602;46012;-79
2023/01/27 04:53:53;;;;;;;;;;;;;;;;;;;;;
2023/01/27 04:57:10;;;;;;;;;14.75;11.00;;;;;6.35;83.00;99917.28;146611;655;46012;-76
2023/01/27 05:00:02;;;;;;;;;13.75;12.00;;;;;7.52;83.38;100098.84;146614;601;46012;-76
2023/01/27 05:03:04;;;;;;;;;;;;;;;;;;;;;
2023/01/27 05:06:03;;;;;;;;;14.75;11.00;;;;;7.55;83.83;100104.19;146616;592;45022;-78
2023/01/27 05:09:04;;;;;;;;;15.75;14.25;;;;;7.52;84.44;100104.91;146610;635;45912;-72
2023/01/27 05:12:04;;;;;;;;;15.00;14.50;;;;;7.50;83.95;100109.06;146617;676;46012;-71
2023/01/27 05:15:06;;;;;;;;;20.25;15.75;;;;;7.49;84.19;100115.06;146611;651;46012;-71
2023/01/27 05:18:03;;;;;;;;;15.75;13.25;;;;;7.48;84.31;100121.03;146615;660;46010;-76
2023/01/27 05:21:00;;;;;;;;;14.75;12.50;;;;;7.47;85.03;100110.63;146608;565;46012;-77
2023/01/27 05:23:54;;;;;;;;;17.50;12.75;;;;;7.42;84.52;100101.75;146609;621;45020;-77
2023/01/27 05:26:56;;;;;;;;;21.00;18.00;;;;;7.42;84.30;100107.81;146610;606;45912;-73
2023/01/27 05:29:58;;;;;;;;;16.75;16.25;;;;;7.42;84.79;100112.09;146613;591;45021;-73
2023/01/27 05:32:54;;;;;;;;;27.25;20.50;;;;;7.39;84.92;100108.53;146613;581;46015;-74
2023/01/27 05:35:46;;;;;;;;;22.50;19.00;;;;;7.38;84.79;100117.06;146611;578;46010;-76
2023/01/27 05:38:52;;;;;;;;;21.00;16.50;;;;;7.39;84.66;100110.22;146612;624;45912;-76
2023/01/27 05:41:54;;;;;;;;;26.75;21.75;;;;;7.40;84.86;100102.53;146616;606;46011;-77
2023/01/27 05:44:46;;;;;;;;;21.00;16.00;;;;;7.40;84.87;100099.97;146607;665;46014;-76
2023/01/27 05:47:51;;;;;;;;;22.75;19.75;;;;;7.42;84.67;100099.19;146613;574;45021;-77
2023/01/27 05:50:58;;;;;;;;;20.50;17.50;;;;;7.48;84.62;100102.09;146611;584;45912;-77
2023/01/27 05:53:55;;;;;;;;;23.25;16.75;;;;;7.50;84.63;100106.50;146609;598;46010;-73
2023/01/27 05:57:09;;;;;;;;;18.50;16.75;;;;;7.55;84.61;100106.75;146613;694;45017;-74
2023/01/27 06:00:13;;;;;;;;;27.25;24.25;;;;;7.57;84.65;100112.88;146614;587;46010;-73
2023/01/27 06:03:07;;;;;;;;;26.00;23.25;;;;;7.55;84.59;100099.03;146609;657;46014;-76
2023/01/27 06:06:08;;;;;;;;;26.00;21.75;;;;;7.60;84.45;100105.28;146613;570;46020;-75
2023/01/27 06:09:22;;;;;;;;;32.00;26.25;;;;;7.02;84.17;100005.09;146612;593;45016;-75
2023/01/27 06:12:17;;;;;;;;;29.50;24.25;;;;;7.67;84.51;100101.37;146616;608;45023;-77
2023/01/27 06:15:17;;;;;;;;;24.50;21.25;;;;;7.69;84.86;100110.94;146611;630;45016;-78
2023/01/27 06:18:13;;;;;;;;;24.25;19.75;;;;;7.70;84.78;100106.69;146613;573;45021;-78
2023/01/27 06:21:10;;;;;;;;;18.75;15.25;;;;;7.68;84.58;100106.59;146608;600;45016;-80
2023/01/27 06:24:06;;;;;;;;;20.00;17.75;;;;;7.64;84.22;100091.78;146605;612;46010;-85
2023/01/27 06:27:01;;;;;;;;;18.75;18.75;;;;;7.63;84.06;100106.38;146613;660;45017;-76
2023/01/27 06:29:56;;;;;;;;;20.25;18.50;;;;;7.63;84.35;100113.19;146614;602;45020;-76
2023/01/27 06:32:55;;;;;;;;;26.75;23.00;;;;;7.64;84.23;100108.13;146609;613;45017;-78
2023/01/27 06:35:47;;;;;;;;;23.00;18.00;;;;;7.07;84.25;100006.25;146612;565;45020;-81
2023/01/27 06:38:52;;;;;;;;;15.50;15.00;;;;;7.62;84.24;100106.28;146610;583;45016;-78
2023/01/27 06:41:44;;;;;;;;;24.00;22.00;;;;;7.63;84.44;100110.63;146622;600;45021;-78
2023/01/27 06:44:48;;;;;;;;;15.75;15.50;;;;;7.67;84.44;100119.44;146618;570;45912;-80
2023/01/27 06:47:40;;;;;;;;;30.50;26.25;;;;;7.69;84.45;100113.53;146624;565;45021;-76
2023/01/27 06:50:37;;;;;;;;;27.75;24.00;;;;;7.71;84.58;100109.34;146621;602;45020;-74
2023/01/27 06:53:38;;;;;;;;;25.25;20.75;;;;;7.75;84.24;100103.53;146616;612;45020;-75
2023/01/27 06:56:37;;;;;;;;;26.00;22.50;;;;;7.77;84.36;100101.91;146620;569;45017;-74
2023/01/27 06:59:32;;;;;;;;;23.75;19.75;;;;;7.81;84.17;100106.44;146624;563;45020;-75
2023/01/27 07:02:28;;;;;;;;;7.25;3.50;;;;;7.82;84.22;100097.91;146619;581;45912;-75
2023/01/27 07:05:23;;;;;;;;;31.50;26.75;;;;;7.82;84.06;100105.63;146621;643;45021;-74
2023/01/27 07:08:18;;;;;;;;;27.50;21.25;;;;;7.81;84.18;100103.84;146620;582;45016;-74
2023/01/27 07:11:13;;;;;;;;;25.75;23.50;;;;;7.77;83.87;100101.03;146618;582;46012;-77
2023/01/27 07:14:05;;;;;;;;;26.75;23.75;;;;;7.75;83.91;100111.25;146615;622;45912;-77
2023/01/27 07:17:08;;;;;;;;;26.75;24.00;;;;;7.73;84.00;100107.75;146624;606;45021;-78
2023/01/27 07:20:12;;;;;;;;;25.25;21.50;;;;;7.69;83.81;100105.78;146619;623;45017;-77
2023/01/27 07:23:12;;;;;;;;;23.50;21.50;;;;;7.69;83.78;100105.78;146619;618;45020;-77
2023/01/27 07:26:17;;;;;;;;;28.75;25.75;;;;;7.71;84.01;100099.00;146622;566;45017;-77
2023/01/27 07:29:15;;;;;;;;;50.00;39.75;;;;;7.74;84.02;100099.19;146624;618;45020;-78
2023/01/27 07:32:08;;;;;;;;;45.00;35.00;;;;;7.80;84.24;100103.78;146616;639;45912;-77
2023/01/27 07:35:11;;;;;;;;;35.25;28.75;;;;;7.29;84.05;100002.19;146624;571;45021;-78
2023/01/27 07:38:10;;;;;;;;;27.50;23.50;;;;;7.87;83.85;100098.13;146616;599;45912;-77
2023/01/27 07:41:13;;;;;;;;;33.50;31.00;;;;;7.90;84.00;100093.12;146623;630;45021;-77
2023/01/27 07:44:16;;;;;;;;;40.00;33.00;;;;;7.94;83.70;100099.31;146617;569;45016;-77
2023/01/27 07:47:08;;;;;;;;;45.25;36.25;;;;;7.98;83.94;100106.44;146622;624;45021;-77
2023/01/27 07:50:08;;;;;;;;;35.75;31.50;;;;;8.02;84.08;100103.19;146620;598;45016;-77
2023/01/27 07:53:16;;;;;;;;;37.50;30.25;;;;;8.06;83.73;100113.75;146616;601;45020;-77
2023/01/27 07:56:11;;;;;;;;;36.25;29.00;;;;;8.10;83.90;100107.94;146616;592;45912;-77
2023/01/27 07:59:07;;;;;;;;;30.25;25.00;;;;;8.13;83.30;100099.47;146622;615;45020;-76
2023/01/27 08:02:20;;;;;;;;;;;;;;;;;;;;;
2023/01/27 08:05:24;;;;;;;;;32.00;29.50;;;;;8.15;82.73;100094.37;146620;563;45022;-76
2023/01/27 08:08:20;;;;;;;;;47.75;37.25;;;;;8.15;83.12;100095.25;146616;752;45912;-76
2023/01/27 08:11:21;;;;;;;;;39.75;31.50;;;;;8.20;83.27;100092.91;146638;612;44020;-76
2023/01/27 08:14:22;;;;;;;;;41.50;34.75;;;;;8.24;83.18;100100.00;146633;576;44912;-75
2023/01/27 08:17:21;;;;;;;;;34.75;31.75;;;;;8.26;83.12;100098.41;146637;569;44021;-75
2023/01/27 08:20:17;;;;;;;;;45.00;35.50;;;;;8.29;83.05;100094.25;146638;708;44016;-74
2023/01/27 08:23:11;;;;;;;;;48.75;37.25;;;;;8.32;83.16;100098.69;146632;569;45010;-76
2023/01/27 08:26:17;;;;;;;;;47.00;36.50;;;;;7.63;83.06;99969.63;146635;582;45012;-76
2023/01/27 08:29:14;;;;;;;;;36.75;32.00;;;;;8.40;82.95;100101.69;146640;609;44020;-75
2023/01/27 08:32:18;;;;;;;;;48.25;37.00;;;;;8.42;82.83;100111.28;146636;634;44017;-74
2023/01/27 08:35:14;;;;;;;;;46.25;39.00;;;;;8.44;82.77;100103.59;146637;575;45020;-74
2023/01/27 08:38:12;;;;;;;;;16.75;14.00;;;;;8.45;83.46;100108.88;146634;600;45013;-71
2023/01/27 08:41:27;;;;;;;;;46.00;36.50;;;;;8.61;85.10;100096.69;146638;597;44021;-76
2023/01/27 08:44:32;;;;;;;;;61.75;46.50;;;;;8.76;84.68;100105.19;146635;627;44916;-75
2023/01/27 08:47:25;;;;;;;;;57.50;46.25;;;;;8.81;83.95;100106.28;146637;654;45010;-75
2023/01/27 08:50:17;;;;;;;;;44.75;36.00;;;;;8.83;83.32;100115.03;146634;654;45010;-77
2023/01/27 08:53:10;;;;;;;;;27.50;25.00;;;;;8.84;82.92;100101.28;146634;605;44020;-77
2023/01/27 08:56:29;;;;;;;;;45.50;36.75;;;;;7.86;82.42;99915.69;146635;644;44911;-74
2023/01/27 08:59:35;;;;;;;;;45.50;37.25;;;;;8.95;82.52;100094.03;146637;581;44020;-75
2023/01/27 09:02:33;;;;;;;;;39.00;33.75;;;;;8.98;82.67;100087.31;146637;664;45012;-75
2023/01/27 09:05:34;;;;;;;;;44.00;36.50;;;;;9.06;82.54;100087.66;146639;627;44020;-76
2023/01/27 09:08:38;;;;;;;;;47.50;40.00;;;;;9.11;81.90;100080.13;146637;599;44912;-74
2023/01/27 09:11:36;;;;;;;;;42.25;35.50;;;;;9.11;81.88;100075.84;146639;783;44020;-75
2023/01/27 09:14:33;;;;;;;;;51.50;40.75;;;;;9.10;81.96;100070.63;146637;569;44016;-75
2023/01/27 09:17:25;;;;;;;;;48.75;39.00;;;;;9.06;82.35;100073.84;146635;569;45010;-75
2023/01/27 09:20:18;;;;;;;;;46.50;36.50;;;;;9.09;82.63;100061.06;146635;602;45014;-75
2023/01/27 09:23:15;;;;;;;;;48.50;37.00;;;;;9.15;82.86;100054.47;146630;566;45010;-75
2023/01/27 09:26:21;;;;;;;;;44.50;34.75;;;;;9.32;83.42;100050.06;146636;611;45016;-76
2023/01/27 09:29:13;;;;;;;;;38.75;31.75;;;;;9.48;83.61;100056.81;146639;564;44020;-76
2023/01/27 09:32:11;;;;;;;;;46.00;34.00;;;;;9.64;82.87;100042.84;146637;612;44037;-74
2023/01/27 09:35:15;;;;;;;;;27.50;24.75;;;;;9.75;81.61;100035.53;146637;572;44020;-77
2023/01/27 09:38:30;;;;;;;;;28.00;23.50;;;;;9.76;81.69;100037.34;146638;569;44016;-75
2023/01/27 09:42:09;;;;;;;;;25.75;18.00;;;;;9.70;80.88;100035.38;146638;696;44020;-75
2023/01/27 09:45:55;;;;;;;;;16.00;14.50;;;;;9.06;81.00;99952.31;146636;588;44475;-74
2023/01/27 09:49:23;;;;;;;;;24.25;21.00;;;;;9.42;81.17;100048.78;146638;573;44020;-74
2023/01/27 09:52:48;;;;;;;;;27.50;23.00;;;;;9.33;81.76;100044.06;146636;573;45910;-71
2023/01/27 09:56:18;;;;;;;;;23.00;20.00;;;;;8.70;82.18;99930.03;146632;673;44020;-76
2023/01/27 09:59:48;;;;;;;;;28.25;22.50;;;;;9.30;82.26;100043.94;146637;578;44016;-75
2023/01/27 10:03:42;;;;;;;;;23.00;20.75;;;;;8.22;81.47;99867.47;146638;596;45010;-75
2023/01/27 10:07:14;;;;;;;;;26.50;26.50;;;;;9.17;81.90;100045.09;146637;565;44912;-76
2023/01/27 10:10:38;;;;;;;;;24.25;23.25;;;;;9.13;82.01;100057.81;146638;598;44021;-78
2023/01/27 10:14:12;;;;;;;;;24.50;22.00;;;;;7.94;81.67;99854.97;146632;624;45910;-76
2023/01/27 10:17:42;;;;;;;;;15.75;15.50;;;;;8.39;82.15;99939.75;146636;581;44021;-76
2023/01/27 10:21:05;;;;;;;;;23.25;20.00;;;;;7.83;81.72;99840.69;146636;618;44912;-77
2023/01/27 10:24:36;;;;;;;;;17.75;16.50;;;;;8.04;81.50;99846.88;146638;621;44021;-81
2023/01/27 10:27:41;;;;;;;;;25.50;24.25;;;;;9.30;82.15;100031.00;146636;581;45014;-75
2023/01/27 10:30:43;;;;;;;;;28.25;23.00;;;;;9.49;81.58;100020.66;146630;654;45012;-75
2023/01/27 10:34:07;;;;;;;;;24.25;18.50;;;;;9.57;79.95;100009.78;146638;563;44016;-77
2023/01/27 10:37:56;;;;;;;;;17.50;13.75;;;;;9.63;79.77;100003.16;146635;595;44021;-76
2023/01/27 10:41:44;;;;;;;;;19.00;16.00;;;;;8.97;79.72;99870.03;146610;579;45016;-78
2023/01/27 10:45:42;;;;;;;;;23.50;18.25;;;;;9.71;78.78;99977.56;146611;588;45914;-77
2023/01/27 10:49:23;;;;;;;;;16.75;16.25;;;;;8.87;78.39;99817.03;146609;645;45018;-77
2023/01/27 10:52:42;;;;;;;;;21.75;19.50;;;;;9.88;77.58;99970.53;146612;585;45021;-76
2023/01/27 10:56:23;;;;;;;;;16.00;15.00;;;;;9.34;77.49;99872.50;146608;591;46012;-77
2023/01/27 11:00:10;;;;;;;;;38.50;31.50;;;;;8.95;77.08;99781.19;146613;601;45021;-76
2023/01/27 11:03:22;;;;;;;;;28.50;24.25;;;;;10.14;76.94;99966.44;146610;588;45018;-79
2023/01/27 11:06:52;;;;;;;;;21.25;19.00;;;;;9.66;76.14;99860.03;146604;596;46011;-77
2023/01/27 11:09:59;;;;;;;;;23.50;20.00;;;;;10.38;75.45;99953.63;146610;593;46012;-78
2023/01/27 11:13:11;;;;;;;;;14.75;13.25;;;;;10.51;75.59;99942.00;146612;611;45021;-78
2023/01/27 11:16:31;;;;;;;;;12.75;12.75;;;;;10.79;75.71;99942.25;146607;672;46012;-80
2023/01/27 11:19:52;;;;;;;;;12.25;12.00;;;;;11.08;75.32;99939.84;146613;594;45033;-78
2023/01/27 11:23:06;;;;;;;;;10.75;9.00;;;;;11.35;72.95;99949.47;146607;574;46013;-78
2023/01/27 11:26:57;;;;;;;;;6.50;6.25;;;;;11.62;72.21;99941.72;146620;590;45020;-79
2023/01/27 11:30:06;;;;;;;;;13.75;12.50;;;;;11.84;71.14;99944.25;146616;564;45913;-78
2023/01/27 11:33:45;;;;;;;;;9.00;7.00;;;;;11.03;69.47;99770.19;146613;603;45020;-79
2023/01/27 11:36:44;;;;;;;;;5.00;4.75;;;;;12.14;68.60;99931.41;146613;581;46014;-79
2023/01/27 11:39:36;;;;;;;;;13.75;13.50;;;;;12.28;66.46;99928.38;146604;597;46010;-79
2023/01/27 11:42:34;;;;;;;;;8.25;6.00;;;;;12.37;66.12;99933.88;146610;573;46001;-78
2023/01/27 11:45:31;;;;;;;;;13.25;12.50;;;;;12.45;65.45;99928.03;146618;585;45021;-79
2023/01/27 11:48:26;;;;;;;;;18.75;17.00;;;;;12.55;67.03;99925.72;146606;576;46012;-78
2023/01/27 11:51:40;;;;;;;;;20.50;18.00;;;;;12.63;66.27;99925.13;146613;588;45021;-79
2023/01/27 11:54:37;;;;;;;;;15.50;12.50;;;;;12.58;63.57;99920.62;146607;665;45914;-78
2023/01/27 11:57:42;;;;;;;;;;;;;;;;;;;;;
2023/01/27 12:00:44;;;;;;;;;7.00;6.50;;;;;12.45;63.01;99920.25;146608;575;45912;-78
2023/01/27 12:04:01;;;;;;;;;10.25;10.25;;;;;12.37;65.30;99921.75;146620;569;45020;-77
2023/01/27 12:07:19;;;;;;;;;13.00;12.75;;;;;12.47;65.16;99918.59;146608;591;45019;-78
2023/01/27 12:10:51;;;;;;;;;18.00;18.00;;;;;12.62;65.43;99912.09;146606;580;46010;-78
2023/01/27 12:14:15;;;;;;;;;10.00;10.00;;;;;12.78;64.51;99913.44;146609;599;46012;-79
2023/01/27 12:17:10;;;;;;;;;12.00;11.75;;;;;12.71;62.86;99904.56;146614;565;45020;-75
2023/01/27 12:20:47;;;;;;;;;7.50;6.75;;;;;11.98;65.03;99814.81;146610;653;46017;-78
2023/01/27 12:23:59;;;;;;;;;9.75;8.25;;;;;12.13;63.67;99869.00;146622;579;45022;-80
2023/01/27 12:26:57;;;;;;;;;21.75;19.75;;;;;11.69;63.20;99826.88;146615;572;45018;-82
2023/01/27 12:30:19;;;;;;;;;6.00;4.75;;;;;12.22;63.53;99903.94;146618;579;45021;-79
2023/01/27 12:33:36;;;;;;;;;10.75;10.50;;;;;12.22;63.46;99903.06;146612;585;45018;-83
2023/01/27 12:36:52;;;;;;;;;16.25;11.75;;;;;11.66;63.85;99806.00;146610;566;46010;-76
2023/01/27 12:39:55;;;;;;;;;10.50;9.75;;;;;12.31;65.00;99908.56;146607;582;47027;-73
2023/01/27 12:43:06;;;;;;;;;11.00;8.75;;;;;12.63;62.87;99900.84;146608;578;45021;-75
2023/01/27 12:46:29;;;;;;;;;8.00;8.00;;;;;12.86;64.47;99906.72;146612;574;46012;-77
2023/01/27 12:49:28;;;;;;;;;17.50;15.25;;;;;13.00;61.91;99912.31;146619;664;46010;-78
2023/01/27 12:52:34;;;;;;;;;8.00;7.00;;;;;13.12;61.02;99912.66;146607;572;45914;-78
2023/01/27 12:55:45;;;;;;;;;16.50;13.75;;;;;13.27;63.76;99912.22;146620;607;45020;-77
2023/01/27 12:59:08;;;;;;;;;10.75;9.00;;;;;13.57;64.34;99914.78;146606;591;46012;-77
2023/01/27 13:02:27;;;;;;;;;30.25;26.75;;;;;13.91;62.47;99903.47;146613;600;46010;-79
2023/01/27 13:05:23;;;;;;;;;23.50;20.75;;;;;14.20;59.67;99898.06;146602;601;46013;-77
2023/01/27 13:08:19;;;;;;;;;18.75;17.75;;;;;14.40;60.65;99902.03;146611;565;46010;-77
2023/01/27 13:11:16;;;;;;;;;17.25;17.25;;;;;14.62;58.52;99895.59;146610;675;45017;-77
2023/01/27 13:14:21;;;;;;;;;11.50;10.50;;;;;14.73;58.68;99903.66;146608;638;45021;-77
2023/01/27 13:17:43;;;;;;;;;14.75;13.75;;;;;14.88;60.72;99903.09;146606;595;46014;-77
2023/01/27 13:21:00;;;;;;;;;17.25;16.25;;;;;15.05;56.81;99893.00;146612;618;45021;-78
2023/01/27 13:23:56;;;;;;;;;14.50;14.50;;;;;15.22;58.24;99908.13;146606;615;46012;-78
2023/01/27 13:26:52;;;;;;;;;10.75;10.50;;;;;15.34;56.45;99917.06;146613;585;45021;-77
2023/01/27 13:30:10;;;;;;;;;10.25;9.25;;;;;15.27;56.24;99905.62;146610;654;45017;-78
2023/01/27 13:33:19;;;;;;;;;21.00;16.50;;;;;15.08;57.02;99912.22;146617;565;46010;-77
2023/01/27 13:36:46;;;;;;;;;18.75;17.00;;;;;13.98;60.41;99711.63;146610;590;45017;-78
2023/01/27 13:40:08;;;;;;;;;14.00;11.25;;;;;15.42;54.39;99921.59;146611;570;45020;-77
2023/01/27 13:43:32;;;;;;;;;16.50;16.00;;;;;14.47;54.60;99749.16;146607;569;45912;-77
2023/01/27 13:46:43;;;;;;;;;11.75;11.50;;;;;15.47;55.36;99932.13;146607;607;45020;-77
2023/01/27 13:49:51;;;;;;;;;20.00;15.50;;;;;15.56;56.06;99932.28;146607;713;46012;-77
2023/01/27 13:53:01;;;;;;;;;17.75;16.00;;;;;15.68;56.57;99932.53;146611;593;45020;-78
2023/01/27 13:56:42;;;;;;;;;21.00;19.00;;;;;15.74;55.17;99939.63;146609;699;45913;-77
2023/01/27 14:00:16;;;;;;;;;13.25;12.00;;;;;14.57;55.17;99772.00;146611;569;46010;-77
2023/01/27 14:03:43;;;;;;;;;15.00;12.75;;;;;15.09;55.35;99949.66;146611;617;45913;-77
2023/01/27 14:07:16;;;;;;;;;9.50;9.25;;;;;14.61;57.80;99960.78;146607;579;46010;-76
2023/01/27 14:10:47;;;;;;;;;20.50;16.00;;;;;13.23;57.68;99796.69;146615;629;45913;-77
2023/01/27 14:14:10;;;;;;;;;15.00;12.75;;;;;12.58;60.59;99777.59;146612;575;45021;-76
2023/01/27 14:17:42;;;;;;;;;22.00;18.75;;;;;13.28;61.18;99977.38;146609;618;45911;-76
2023/01/27 14:21:12;;;;;;;;;12.50;11.50;;;;;11.81;61.65;99793.50;146606;577;46012;-77
2023/01/27 14:24:50;;;;;;;;;15.50;15.00;;;;;12.51;61.52;99989.75;146608;680;45018;-77
2023/01/27 14:27:52;;;;;;;;;20.00;18.25;;;;;12.25;63.50;99996.75;146609;564;46012;-76
2023/01/27 14:30:59;;;;;;;;;24.25;21.25;;;;;12.06;64.55;99994.37;146608;615;45913;-77
2023/01/27 14:34:26;;;;;;;;;32.00;29.00;;;;;11.92;66.36;99986.97;146613;589;45021;-76
2023/01/27 14:37:56;;;;;;;;;24.50;21.25;;;;;11.86;66.17;99991.06;146608;607;45911;-77
2023/01/27 14:41:22;;;;;;;;;18.50;18.50;;;;;11.74;64.99;99995.00;146611;586;46010;-78
2023/01/27 14:44:44;;;;;;;;;35.50;29.50;;;;;11.65;65.46;99993.78;146606;634;46012;-77
2023/01/27 14:48:09;;;;;;;;;48.50;36.00;;;;;11.53;65.22;100000.31;146612;579;46012;-76
2023/01/27 14:51:34;;;;;;;;;34.75;30.25;;;;;10.30;64.55;99815.97;146608;609;45875;-77
2023/01/27 14:55:10;;;;;;;;;40.00;33.00;;;;;10.21;65.68;99810.41;146606;623;45020;-77
2023/01/27 14:59:04;;;;;;;;;22.00;19.75;;;;;11.26;65.79;99996.72;146610;642;45913;-77
2023/01/27 15:02:50;;;;;;;;;34.25;30.50;;;;;10.39;67.32;99867.25;146610;570;46010;-77